sensor_id;sensor_type;location;lat;lon;timestamp;pressure;altitude;pressure_sealevel;temperature;humidity
22743;BME280;11538;48.884;8.696;2022-08-19T00:02:11;98358.00;;;22.45;68.75
22743;BME280;11538;48.884;8.696;2022-08-19T00:04:37;98345.31;;;22.41;68.56
22743;BME280;11538;48.884;8.696;2022-08-19T00:07:06;98351.63;;;22.38;68.64
22743;BME280;11538;48.884;8.696;2022-08-19T00:09:34;98350.03;;;22.37;68.76
22743;BME280;11538;48.884;8.696;2022-08-19T00:12:01;98351.22;;;22.39;68.71
22743;BME280;11538;48.884;8.696;2022-08-19T00:14:30;98340.59;;;22.41;68.43
22743;BME280;11538;48.884;8.696;2022-08-19T00:16:59;98345.31;;;22.37;68.35
22743;BME280;11538;48.884;8.696;2022-08-19T00:19:26;98341.75;;;22.37;68.22
22743;BME280;11538;48.884;8.696;2022-08-19T00:21:53;98355.97;;;22.35;68.52
22743;BME280;11538;48.884;8.696;2022-08-19T00:24:23;98348.84;;;22.38;68.43
22743;BME280;11538;48.884;8.696;2022-08-19T00:26:52;98359.53;;;22.39;68.09
22743;BME280;11538;48.884;8.696;2022-08-19T00:29:21;98366.63;;;22.40;68.49
22743;BME280;11538;48.884;8.696;2022-08-19T00:31:48;98366.63;;;22.40;68.29
22743;BME280;11538;48.884;8.696;2022-08-19T00:34:16;98373.34;;;22.43;68.26
22743;BME280;11538;48.884;8.696;2022-08-19T00:36:46;98361.53;;;22.46;68.46
22743;BME280;11538;48.884;8.696;2022-08-19T00:39:15;98351.28;;;22.46;68.38
22743;BME280;11538;48.884;8.696;2022-08-19T00:41:46;98339.81;;;22.44;68.39
22743;BME280;11538;48.884;8.696;2022-08-19T00:44:19;98335.06;;;22.45;68.52
22743;BME280;11538;48.884;8.696;2022-08-19T00:46:55;98317.31;;;22.46;68.54
22743;BME280;11538;48.884;8.696;2022-08-19T00:49:52;98321.25;;;22.41;68.78
22743;BME280;11538;48.884;8.696;2022-08-19T00:52:33;98322.03;;;22.42;69.08
22743;BME280;11538;48.884;8.696;2022-08-19T00:55:05;98323.19;;;22.41;69.10
22743;BME280;11538;48.884;8.696;2022-08-19T00:57:40;98318.84;;;22.40;68.87
22743;BME280;11538;48.884;8.696;2022-08-19T01:00:13;98312.53;;;22.35;69.28
22743;BME280;11538;48.884;8.696;2022-08-19T01:02:42;98311.34;;;22.33;69.51
22743;BME280;11538;48.884;8.696;2022-08-19T01:05:17;98325.94;;;22.33;69.75
22743;BME280;11538;48.884;8.696;2022-08-19T01:07:45;98326.34;;;22.32;69.80
22743;BME280;11538;48.884;8.696;2022-08-19T01:10:22;98332.66;;;22.32;69.79
22743;BME280;11538;48.884;8.696;2022-08-19T01:12:51;98332.66;;;22.32;69.84
22743;BME280;11538;48.884;8.696;2022-08-19T01:15:27;98324.78;;;22.31;70.14
22743;BME280;11538;48.884;8.696;2022-08-19T01:17:58;98318.44;;;22.30;70.25
22743;BME280;11538;48.884;8.696;2022-08-19T01:20:26;98323.56;;;22.28;70.44
22743;BME280;11538;48.884;8.696;2022-08-19T01:23:00;98320.41;;;22.23;70.76
22743;BME280;11538;48.884;8.696;2022-08-19T01:25:46;98329.06;;;22.21;71.06
22743;BME280;11538;48.884;8.696;2022-08-19T01:28:22;98322.75;;;22.24;70.82
22743;BME280;11538;48.884;8.696;2022-08-19T01:31:09;98323.16;;;22.26;70.91
22743;BME280;11538;48.884;8.696;2022-08-19T01:33:55;98317.25;;;22.24;71.24
22743;BME280;11538;48.884;8.696;2022-08-19T01:36:41;98326.34;;;22.25;71.60
22743;BME280;11538;48.884;8.696;2022-08-19T01:39:13;98325.13;;;22.22;71.84
22743;BME280;11538;48.884;8.696;2022-08-19T01:41:40;98331.84;;;22.17;72.36
22743;BME280;11538;48.884;8.696;2022-08-19T01:44:09;98333.75;;;22.10;72.63
22743;BME280;11538;48.884;8.696;2022-08-19T01:46:47;98326.66;;;22.05;72.77
22743;BME280;11538;48.884;8.696;2022-08-19T01:49:19;98323.50;;;22.03;73.05
22743;BME280;11538;48.884;8.696;2022-08-19T01:51:47;98328.63;;;22.08;73.39
22743;BME280;11538;48.884;8.696;2022-08-19T01:54:17;98332.59;;;22.11;73.06
22743;BME280;11538;48.884;8.696;2022-08-19T01:57:07;98325.88;;;22.08;73.24
22743;BME280;11538;48.884;8.696;2022-08-19T01:59:35;98327.06;;;22.07;73.20
22743;BME280;11538;48.884;8.696;2022-08-19T02:02:05;98321.13;;;22.09;73.42
22743;BME280;11538;48.884;8.696;2022-08-19T02:04:36;98325.06;;;22.08;73.62
22743;BME280;11538;48.884;8.696;2022-08-19T02:07:06;98319.94;;;22.02;73.99
22743;BME280;11538;48.884;8.696;2022-08-19T02:09:35;98325.84;;;22.01;74.20
22743;BME280;11538;48.884;8.696;2022-08-19T02:12:04;98330.16;;;21.98;74.53
22743;BME280;11538;48.884;8.696;2022-08-19T02:14:33;98338.84;;;22.00;74.49
22743;BME280;11538;48.884;8.696;2022-08-19T02:17:00;98338.47;;;22.02;74.62
22743;BME280;11538;48.884;8.696;2022-08-19T02:19:28;98346.38;;;22.03;74.69
22743;BME280;11538;48.884;8.696;2022-08-19T02:21:55;98338.88;;;22.04;74.91
22743;BME280;11538;48.884;8.696;2022-08-19T02:24:21;98336.91;;;22.01;74.94
22743;BME280;11538;48.884;8.696;2022-08-19T02:26:48;98341.22;;;21.98;75.33
22743;BME280;11538;48.884;8.696;2022-08-19T02:29:15;98332.94;;;21.98;75.37
22743;BME280;11538;48.884;8.696;2022-08-19T02:31:42;98342.03;;;21.99;75.33
22743;BME280;11538;48.884;8.696;2022-08-19T02:34:09;98340.81;;;21.96;75.54
22743;BME280;11538;48.884;8.696;2022-08-19T02:36:36;98334.91;;;21.98;75.39
22743;BME280;11538;48.884;8.696;2022-08-19T02:39:09;98326.63;;;21.98;75.58
22743;BME280;11538;48.884;8.696;2022-08-19T02:41:37;98328.22;;;21.99;75.56
22743;BME280;11538;48.884;8.696;2022-08-19T02:44:04;98327.78;;;21.93;75.91
22743;BME280;11538;48.884;8.696;2022-08-19T02:46:51;98323.44;;;21.88;76.13
22743;BME280;11538;48.884;8.696;2022-08-19T02:49:19;98309.19;;;21.86;76.32
22743;BME280;11538;48.884;8.696;2022-08-19T02:51:49;98315.13;;;21.85;76.43
22743;BME280;11538;48.884;8.696;2022-08-19T02:54:19;98313.91;;;21.79;76.80
22743;BME280;11538;48.884;8.696;2022-08-19T02:56:45;98331.25;;;21.79;76.82
22743;BME280;11538;48.884;8.696;2022-08-19T02:59:13;98326.13;;;21.77;77.02
22743;BME280;11538;48.884;8.696;2022-08-19T03:01:41;98331.66;;;21.77;77.20
22743;BME280;11538;48.884;8.696;2022-08-19T03:04:12;98320.97;;;21.76;77.11
22743;BME280;11538;48.884;8.696;2022-08-19T03:06:44;98322.56;;;21.73;77.42
22743;BME280;11538;48.884;8.696;2022-08-19T03:09:12;98322.56;;;21.73;77.39
22743;BME280;11538;48.884;8.696;2022-08-19T03:11:41;98325.31;;;21.73;77.53
22743;BME280;11538;48.884;8.696;2022-08-19T03:14:09;98330.44;;;21.71;77.69
22743;BME280;11538;48.884;8.696;2022-08-19T03:16:47;98325.28;;;21.70;78.00
22743;BME280;11538;48.884;8.696;2022-08-19T03:19:19;98324.09;;;21.67;78.25
22743;BME280;11538;48.884;8.696;2022-08-19T03:21:47;98330.00;;;21.66;78.48
22743;BME280;11538;48.884;8.696;2022-08-19T03:24:16;98325.28;;;21.66;78.64
22743;BME280;11538;48.884;8.696;2022-08-19T03:26:48;98329.94;;;21.58;79.32
22743;BME280;11538;48.884;8.696;2022-08-19T03:29:18;98325.59;;;21.57;79.78
22743;BME280;11538;48.884;8.696;2022-08-19T03:32:01;98326.00;;;21.59;79.88
22743;BME280;11538;48.884;8.696;2022-08-19T03:34:33;98328.75;;;21.56;80.48
22743;BME280;11538;48.884;8.696;2022-08-19T03:37:09;98331.88;;;21.54;81.06
22743;BME280;11538;48.884;8.696;2022-08-19T03:39:40;98327.56;;;21.57;81.38
22743;BME280;11538;48.884;8.696;2022-08-19T03:42:08;98323.22;;;21.56;81.77
22743;BME280;11538;48.884;8.696;2022-08-19T03:44:55;98320.44;;;21.52;82.14
22743;BME280;11538;48.884;8.696;2022-08-19T03:47:22;98324.00;;;21.53;82.21
22743;BME280;11538;48.884;8.696;2022-08-19T03:49:49;98323.59;;;21.51;82.63
22743;BME280;11538;48.884;8.696;2022-08-19T03:52:16;98316.88;;;21.48;82.67
22743;BME280;11538;48.884;8.696;2022-08-19T03:54:43;98327.47;;;21.42;82.80
22743;BME280;11538;48.884;8.696;2022-08-19T03:57:11;98314.88;;;21.45;82.69
22743;BME280;11538;48.884;8.696;2022-08-19T03:59:39;98327.91;;;21.48;82.21
22743;BME280;11538;48.884;8.696;2022-08-19T04:02:10;98319.63;;;21.48;82.49
22743;BME280;11538;48.884;8.696;2022-08-19T04:04:41;98331.47;;;21.48;82.28
22743;BME280;11538;48.884;8.696;2022-08-19T04:07:12;98341.28;;;21.46;82.75
22743;BME280;11538;48.884;8.696;2022-08-19T04:09:42;98344.81;;;21.43;82.83
22743;BME280;11538;48.884;8.696;2022-08-19T04:12:09;98353.09;;;21.39;83.04
22743;BME280;11538;48.884;8.696;2022-08-19T04:14:36;98354.25;;;21.38;83.42
22743;BME280;11538;48.884;8.696;2022-08-19T04:17:03;98351.88;;;21.37;83.36
22743;BME280;11538;48.884;8.696;2022-08-19T04:19:35;98346.34;;;21.37;83.62
22743;BME280;11538;48.884;8.696;2022-08-19T04:22:03;98345.16;;;21.38;83.85
22743;BME280;11538;48.884;8.696;2022-08-19T04:24:31;98342.81;;;21.36;83.83
22743;BME280;11538;48.884;8.696;2022-08-19T04:27:03;98343.56;;;21.33;84.05
22743;BME280;11538;48.884;8.696;2022-08-19T04:29:32;98353.44;;;21.34;84.33
22743;BME280;11538;48.884;8.696;2022-08-19T04:32:00;98355.03;;;21.35;84.40
22743;BME280;11538;48.884;8.696;2022-08-19T04:34:35;98366.41;;;21.33;84.60
22743;BME280;11538;48.884;8.696;2022-08-19T04:37:23;98364.06;;;21.32;84.89
22743;BME280;11538;48.884;8.696;2022-08-19T04:39:51;98364.06;;;21.32;84.94
22743;BME280;11538;48.884;8.696;2022-08-19T04:42:36;98360.09;;;21.29;84.89
22743;BME280;11538;48.884;8.696;2022-08-19T04:45:11;98354.56;;;21.29;85.04
22743;BME280;11538;48.884;8.696;2022-08-19T04:47:41;98361.31;;;21.32;84.72
22743;BME280;11538;48.884;8.696;2022-08-19T04:50:18;98360.53;;;21.35;84.65
22743;BME280;11538;48.884;8.696;2022-08-19T04:52:45;98366.06;;;21.35;84.49
22743;BME280;11538;48.884;8.696;2022-08-19T04:55:13;98362.47;;;21.31;84.63
22743;BME280;11538;48.884;8.696;2022-08-19T04:57:40;98362.06;;;21.29;84.98
22743;BME280;11538;48.884;8.696;2022-08-19T05:00:09;98359.31;;;21.29;84.86
22743;BME280;11538;48.884;8.696;2022-08-19T05:02:37;98345.53;;;21.32;84.54
22743;BME280;11538;48.884;8.696;2022-08-19T05:05:06;98349.91;;;21.37;84.32
22743;BME280;11538;48.884;8.696;2022-08-19T05:07:34;98354.25;;;21.38;84.15
22743;BME280;11538;48.884;8.696;2022-08-19T05:10:03;98355.84;;;21.39;84.24
22743;BME280;11538;48.884;8.696;2022-08-19T05:12:31;98365.66;;;21.33;84.44
22743;BME280;11538;48.884;8.696;2022-08-19T05:14:59;98362.50;;;21.35;84.73
22743;BME280;11538;48.884;8.696;2022-08-19T05:17:27;98364.88;;;21.36;84.54
22743;BME280;11538;48.884;8.696;2022-08-19T05:20:00;98377.50;;;21.37;84.62
22743;BME280;11538;48.884;8.696;2022-08-19T05:22:47;98386.16;;;21.36;84.51
22743;BME280;11538;48.884;8.696;2022-08-19T05:25:19;98392.47;;;21.36;84.71
22743;BME280;11538;48.884;8.696;2022-08-19T05:27:48;98394.00;;;21.33;84.84
22743;BME280;11538;48.884;8.696;2022-08-19T05:30:16;98393.22;;;21.33;84.81
22743;BME280;11538;48.884;8.696;2022-08-19T05:32:43;98412.50;;;21.29;85.03
22743;BME280;11538;48.884;8.696;2022-08-19T05:35:10;98418.00;;;21.26;85.22
22743;BME280;11538;48.884;8.696;2022-08-19T05:37:39;98426.28;;;21.26;85.21
22743;BME280;11538;48.884;8.696;2022-08-19T05:40:16;98429.41;;;21.24;85.15
22743;BME280;11538;48.884;8.696;2022-08-19T05:42:43;98425.47;;;21.25;85.12
22743;BME280;11538;48.884;8.696;2022-08-19T05:45:20;98435.72;;;21.28;84.68
22743;BME280;11538;48.884;8.696;2022-08-19T05:47:49;98436.53;;;21.29;84.69
22743;BME280;11538;48.884;8.696;2022-08-19T05:50:16;98439.25;;;21.25;84.55
22743;BME280;11538;48.884;8.696;2022-08-19T05:52:44;98441.66;;;21.27;84.45
22743;BME280;11538;48.884;8.696;2022-08-19T05:55:15;98446.00;;;21.28;84.32
22743;BME280;11538;48.884;8.696;2022-08-19T05:57:42;98444.00;;;21.28;84.07
22743;BME280;11538;48.884;8.696;2022-08-19T06:00:10;98438.53;;;21.32;83.77
22743;BME280;11538;48.884;8.696;2022-08-19T06:02:38;98434.25;;;21.38;83.17
22743;BME280;11538;48.884;8.696;2022-08-19T06:05:07;98444.53;;;21.41;82.76
22743;BME280;11538;48.884;8.696;2022-08-19T06:07:37;98444.53;;;21.41;82.69
22743;BME280;11538;48.884;8.696;2022-08-19T06:10:06;98442.19;;;21.47;82.24
22743;BME280;11538;48.884;8.696;2022-08-19T06:12:35;98451.69;;;21.53;82.07
22743;BME280;11538;48.884;8.696;2022-08-19T06:15:10;98446.56;;;21.52;81.97
22743;BME280;11538;48.884;8.696;2022-08-19T06:17:38;98440.66;;;21.50;81.82
22743;BME280;11538;48.884;8.696;2022-08-19T06:20:10;98447.00;;;21.54;81.89
22743;BME280;11538;48.884;8.696;2022-08-19T06:22:43;98447.41;;;21.59;81.59
22743;BME280;11538;48.884;8.696;2022-08-19T06:25:13;98437.22;;;21.64;81.06
22743;BME280;11538;48.884;8.696;2022-08-19T06:27:41;98441.19;;;21.66;80.87
22743;BME280;11538;48.884;8.696;2022-08-19T06:30:28;98445.13;;;21.65;80.97
22743;BME280;11538;48.884;8.696;2022-08-19T06:32:55;98447.09;;;21.65;81.32
22743;BME280;11538;48.884;8.696;2022-08-19T06:35:22;98451.88;;;21.71;80.75
22743;BME280;11538;48.884;8.696;2022-08-19T06:37:49;98443.19;;;21.73;80.17
22743;BME280;11538;48.884;8.696;2022-08-19T06:40:16;98447.94;;;21.76;79.40
22743;BME280;11538;48.884;8.696;2022-08-19T06:42:43;98446.00;;;21.76;79.21
22743;BME280;11538;48.884;8.696;2022-08-19T06:45:22;98443.59;;;21.71;79.10
22743;BME280;11538;48.884;8.696;2022-08-19T06:48:00;98444.06;;;21.81;78.70
22743;BME280;11538;48.884;8.696;2022-08-19T06:50:27;98446.81;;;21.84;78.66
22743;BME280;11538;48.884;8.696;2022-08-19T06:52:54;98436.97;;;21.83;78.80
22743;BME280;11538;48.884;8.696;2022-08-19T06:55:21;98437.00;;;21.87;78.63
22743;BME280;11538;48.884;8.696;2022-08-19T06:57:49;98440.97;;;21.93;78.55
22743;BME280;11538;48.884;8.696;2022-08-19T07:00:20;98441.38;;;21.95;78.45
22743;BME280;11538;48.884;8.696;2022-08-19T07:02:47;98446.59;;;22.04;78.10
22743;BME280;11538;48.884;8.696;2022-08-19T07:05:23;98438.72;;;22.10;77.56
22743;BME280;11538;48.884;8.696;2022-08-19T07:07:50;98438.75;;;22.17;76.78
22743;BME280;11538;48.884;8.696;2022-08-19T07:10:18;98437.97;;;22.20;76.17
22743;BME280;11538;48.884;8.696;2022-08-19T07:12:46;98437.97;;;22.20;75.85
22743;BME280;11538;48.884;8.696;2022-08-19T07:15:21;98436.78;;;22.21;75.36
22743;BME280;11538;48.884;8.696;2022-08-19T07:17:48;98446.25;;;22.20;75.09
22743;BME280;11538;48.884;8.696;2022-08-19T07:20:19;98446.66;;;22.22;74.96
22743;BME280;11538;48.884;8.696;2022-08-19T07:22:46;98447.84;;;22.17;74.92
22743;BME280;11538;48.884;8.696;2022-08-19T07:25:14;98451.78;;;22.20;75.05
22743;BME280;11538;48.884;8.696;2022-08-19T07:27:43;98454.53;;;22.20;74.93
22743;BME280;11538;48.884;8.696;2022-08-19T07:30:12;98460.03;;;22.13;74.98
22743;BME280;11538;48.884;8.696;2022-08-19T07:32:40;98459.25;;;22.12;75.31
22743;BME280;11538;48.884;8.696;2022-08-19T07:35:07;98463.97;;;22.12;74.86
22743;BME280;11538;48.884;8.696;2022-08-19T07:37:36;98479.00;;;22.18;74.29
22743;BME280;11538;48.884;8.696;2022-08-19T07:40:06;98470.38;;;22.27;74.48
22743;BME280;11538;48.884;8.696;2022-08-19T07:42:34;98471.97;;;22.31;74.53
22743;BME280;11538;48.884;8.696;2022-08-19T07:45:01;98470.44;;;22.41;73.91
22743;BME280;11538;48.884;8.696;2022-08-19T07:47:28;98472.13;;;22.53;73.40
22743;BME280;11538;48.884;8.696;2022-08-19T07:50:18;98480.81;;;22.55;73.24
22743;BME280;11538;48.884;8.696;2022-08-19T07:52:47;98471.34;;;22.56;72.66
22743;BME280;11538;48.884;8.696;2022-08-19T07:55:22;98475.66;;;22.54;72.23
22743;BME280;11538;48.884;8.696;2022-08-19T07:58:17;98475.66;;;22.54;72.76
22743;BME280;11538;48.884;8.696;2022-08-19T08:00:46;98468.56;;;22.53;72.27
22743;BME280;11538;48.884;8.696;2022-08-19T08:03:18;98468.56;;;22.53;72.46
22743;BME280;11538;48.884;8.696;2022-08-19T08:05:46;98472.91;;;22.54;72.61
22743;BME280;11538;48.884;8.696;2022-08-19T08:08:31;98475.69;;;22.57;72.14
22743;BME280;11538;48.884;8.696;2022-08-19T08:11:20;98462.59;;;22.47;71.98
22743;BME280;11538;48.884;8.696;2022-08-19T08:13:49;98469.00;;;22.62;71.74
22743;BME280;11538;48.884;8.696;2022-08-19T08:16:35;98457.63;;;22.89;70.74
22743;BME280;11538;48.884;8.696;2022-08-19T08:19:14;98456.09;;;23.17;69.83
22743;BME280;11538;48.884;8.696;2022-08-19T08:21:56;98459.69;;;23.32;68.59
22743;BME280;11538;48.884;8.696;2022-08-19T08:24:26;98461.69;;;23.39;68.14
22743;BME280;11538;48.884;8.696;2022-08-19T08:26:55;98464.47;;;23.53;67.54
22743;BME280;11538;48.884;8.696;2022-08-19T08:29:27;98473.94;;;23.63;67.17
22743;BME280;11538;48.884;8.696;2022-08-19T08:32:01;98464.84;;;23.66;66.90
22743;BME280;11538;48.884;8.696;2022-08-19T08:34:28;98468.00;;;23.61;66.98
22743;BME280;11538;48.884;8.696;2022-08-19T08:36:55;98470.78;;;23.68;67.13
22743;BME280;11538;48.884;8.696;2022-08-19T08:39:22;98466.03;;;23.72;66.54
22743;BME280;11538;48.884;8.696;2022-08-19T08:42:32;98470.38;;;23.73;66.39
22743;BME280;11538;48.884;8.696;2022-08-19T08:45:15;98463.28;;;23.76;66.19
22743;BME280;11538;48.884;8.696;2022-08-19T08:47:49;98469.19;;;23.81;66.34
22743;BME280;11538;48.884;8.696;2022-08-19T08:50:29;98477.88;;;23.84;65.82
22743;BME280;11538;48.884;8.696;2022-08-19T08:53:05;98472.34;;;23.84;65.85
22743;BME280;11538;48.884;8.696;2022-08-19T08:55:34;98476.72;;;23.81;65.84
22743;BME280;11538;48.884;8.696;2022-08-19T08:58:25;98486.19;;;23.84;65.72
22743;BME280;11538;48.884;8.696;2022-08-19T09:00:53;98485.44;;;23.87;65.63
22743;BME280;11538;48.884;8.696;2022-08-19T09:03:28;98484.63;;;23.90;65.34
22743;BME280;11538;48.884;8.696;2022-08-19T09:08:49;98479.88;;;24.05;65.10
22743;BME280;11538;48.884;8.696;2022-08-19T09:12:10;98484.63;;;24.08;64.94
22743;BME280;11538;48.884;8.696;2022-08-19T09:14:57;98485.03;;;24.06;64.68
22743;BME280;11538;48.884;8.696;2022-08-19T09:17:30;98482.25;;;24.14;64.58
22743;BME280;11538;48.884;8.696;2022-08-19T09:22:40;98478.25;;;24.22;64.09
22743;BME280;11538;48.884;8.696;2022-08-19T09:25:10;98477.47;;;24.25;63.89
22743;BME280;11538;48.884;8.696;2022-08-19T09:27:40;98477.44;;;24.32;63.51
22743;BME280;11538;48.884;8.696;2022-08-19T09:30:14;98479.78;;;24.41;63.19
22743;BME280;11538;48.884;8.696;2022-08-19T09:32:43;98484.09;;;24.53;62.50
22743;BME280;11538;48.884;8.696;2022-08-19T09:35:13;98489.66;;;24.57;62.01
22743;BME280;11538;48.884;8.696;2022-08-19T09:37:42;98487.19;;;24.70;62.14
22743;BME280;11538;48.884;8.696;2022-08-19T09:40:12;98485.63;;;24.68;61.18
22743;BME280;11538;48.884;8.696;2022-08-19T09:42:39;98482.47;;;24.66;61.48
22743;BME280;11538;48.884;8.696;2022-08-19T09:45:19;98477.31;;;24.79;61.46
22743;BME280;11538;48.884;8.696;2022-08-19T09:47:50;98480.38;;;24.96;60.35
22743;BME280;11538;48.884;8.696;2022-08-19T09:50:22;98479.97;;;24.97;60.09
22743;BME280;11538;48.884;8.696;2022-08-19T09:52:50;98487.91;;;24.95;60.43
22743;BME280;11538;48.884;8.696;2022-08-19T09:55:24;98480.78;;;24.94;59.33
22743;BME280;11538;48.884;8.696;2022-08-19T09:58:00;98480.38;;;24.96;60.02
22743;BME280;11538;48.884;8.696;2022-08-19T10:00:28;98491.00;;;25.05;59.76
22743;BME280;11538;48.884;8.696;2022-08-19T10:02:55;98485.03;;;25.10;58.83
22743;BME280;11538;48.884;8.696;2022-08-19T10:05:22;98485.41;;;25.16;58.97
22743;BME280;11538;48.884;8.696;2022-08-19T10:08:09;98480.09;;;25.39;57.69
22743;BME280;11538;48.884;8.696;2022-08-19T10:10:43;98480.38;;;25.60;57.17
22743;BME280;11538;48.884;8.696;2022-08-19T10:13:17;98483.56;;;25.58;56.03
22743;BME280;11538;48.884;8.696;2022-08-19T10:15:44;98479.25;;;25.50;57.07
22743;BME280;11538;48.884;8.696;2022-08-19T10:18:15;98473.34;;;25.44;57.55
22743;BME280;11538;48.884;8.696;2022-08-19T10:20:47;98481.56;;;25.59;56.45
22743;BME280;11538;48.884;8.696;2022-08-19T10:23:19;98490.47;;;25.84;57.31
22743;BME280;11538;48.884;8.696;2022-08-19T10:25:48;98478.53;;;25.88;56.26
22743;BME280;11538;48.884;8.696;2022-08-19T10:28:16;98475.47;;;25.75;55.00
22743;BME280;11538;48.884;8.696;2022-08-19T10:30:46;98469.09;;;25.78;55.42
22743;BME280;11538;48.884;8.696;2022-08-19T10:33:14;98477.78;;;25.83;58.60
22743;BME280;11538;48.884;8.696;2022-08-19T10:36:15;98470.47;;;25.59;56.17
22743;BME280;11538;48.884;8.696;2022-08-19T10:38:51;98464.94;;;25.55;56.10
22743;BME280;11538;48.884;8.696;2022-08-19T10:41:26;98461.38;;;25.54;56.42
22743;BME280;11538;48.884;8.696;2022-08-19T10:43:58;98454.19;;;25.57;57.56
22743;BME280;11538;48.884;8.696;2022-08-19T10:46:31;98456.16;;;25.64;56.95
22743;BME280;11538;48.884;8.696;2022-08-19T10:49:01;98468.50;;;25.55;56.34
22743;BME280;11538;48.884;8.696;2022-08-19T10:51:28;98474.97;;;25.34;56.32
22743;BME280;11538;48.884;8.696;2022-08-19T10:54:15;98471.00;;;25.39;57.72
22743;BME280;11538;48.884;8.696;2022-08-19T10:56:57;98466.16;;;25.96;56.54
22743;BME280;11538;48.884;8.696;2022-08-19T10:59:29;98453.16;;;26.27;54.23
22743;BME280;11538;48.884;8.696;2022-08-19T11:02:06;98458.34;;;26.25;52.53
22743;BME280;11538;48.884;8.696;2022-08-19T11:04:33;98449.28;;;26.52;52.38
22743;BME280;11538;48.884;8.696;2022-08-19T11:07:03;98438.28;;;26.41;52.85
22743;BME280;11538;48.884;8.696;2022-08-19T11:09:39;98439.28;;;26.24;53.46
22743;BME280;11538;48.884;8.696;2022-08-19T11:12:09;98436.63;;;26.13;53.32
22743;BME280;11538;48.884;8.696;2022-08-19T11:14:37;98432.28;;;26.08;53.54
22743;BME280;11538;48.884;8.696;2022-08-19T11:17:06;98427.59;;;26.71;52.50
22743;BME280;11538;48.884;8.696;2022-08-19T11:19:34;98412.56;;;27.23;49.52
22743;BME280;11538;48.884;8.696;2022-08-19T11:22:03;98416.34;;;27.84;48.15
22743;BME280;11538;48.884;8.696;2022-08-19T11:24:31;98427.34;;;27.68;48.46
22743;BME280;11538;48.884;8.696;2022-08-19T11:27:08;98429.13;;;27.30;51.42
22743;BME280;11538;48.884;8.696;2022-08-19T11:29:38;98435.19;;;26.98;51.08
22743;BME280;11538;48.884;8.696;2022-08-19T11:32:09;98434.56;;;26.86;51.88
22743;BME280;11538;48.884;8.696;2022-08-19T11:34:37;98423.69;;;27.23;48.90
22743;BME280;11538;48.884;8.696;2022-08-19T11:37:04;98424.13;;;27.93;47.06
22743;BME280;11538;48.884;8.696;2022-08-19T11:39:34;98422.47;;;28.20;46.11
22743;BME280;11538;48.884;8.696;2022-08-19T11:42:06;98426.84;;;27.97;46.62
22743;BME280;11538;48.884;8.696;2022-08-19T11:44:53;98431.34;;;27.67;47.40
22743;BME280;11538;48.884;8.696;2022-08-19T11:47:21;98425.78;;;27.91;46.27
22743;BME280;11538;48.884;8.696;2022-08-19T11:49:48;98433.31;;;28.54;44.97
22743;BME280;11538;48.884;8.696;2022-08-19T11:52:15;98435.00;;;28.68;44.74
22743;BME280;11538;48.884;8.696;2022-08-19T11:54:42;98429.94;;;28.63;43.25
22743;BME280;11538;48.884;8.696;2022-08-19T11:57:09;98440.84;;;28.37;44.42
22743;BME280;11538;48.884;8.696;2022-08-19T11:59:54;98437.16;;;28.20;44.18
22743;BME280;11538;48.884;8.696;2022-08-19T12:02:21;98441.94;;;29.17;42.92
22743;BME280;11538;48.884;8.696;2022-08-19T12:04:49;98438.03;;;30.10;40.85
22743;BME280;11538;48.884;8.696;2022-08-19T12:07:17;98443.41;;;30.04;41.47
22743;BME280;11538;48.884;8.696;2022-08-19T12:09:44;98452.28;;;29.53;42.62
22743;BME280;11538;48.884;8.696;2022-08-19T12:12:14;98441.91;;;29.00;43.11
22743;BME280;11538;48.884;8.696;2022-08-19T12:14:41;98435.59;;;28.59;41.98
22743;BME280;11538;48.884;8.696;2022-08-19T12:17:08;98431.78;;;28.70;44.16
22743;BME280;11538;48.884;8.696;2022-08-19T12:19:37;98435.06;;;28.85;44.61
22743;BME280;11538;48.884;8.696;2022-08-19T12:22:04;98423.78;;;29.25;42.28
22743;BME280;11538;48.884;8.696;2022-08-19T12:24:33;98429.44;;;29.38;41.77
22743;BME280;11538;48.884;8.696;2022-08-19T12:27:00;98422.75;;;29.19;46.27
22743;BME280;11538;48.884;8.696;2022-08-19T12:29:29;98427.91;;;28.84;41.62
22743;BME280;11538;48.884;8.696;2022-08-19T12:31:59;98421.75;;;28.72;42.03
22743;BME280;11538;48.884;8.696;2022-08-19T12:34:31;98425.16;;;28.43;41.08
22743;BME280;11538;48.884;8.696;2022-08-19T12:37:03;98426.81;;;28.21;41.82
22743;BME280;11538;48.884;8.696;2022-08-19T12:39:34;98420.88;;;28.19;43.91
22743;BME280;11538;48.884;8.696;2022-08-19T12:42:02;98417.13;;;28.66;43.17
22743;BME280;11538;48.884;8.696;2022-08-19T12:44:29;98421.16;;;29.35;42.54
22743;BME280;11538;48.884;8.696;2022-08-19T12:47:00;98411.38;;;29.10;44.20
22743;BME280;11538;48.884;8.696;2022-08-19T12:49:30;98415.06;;;28.50;45.14
22743;BME280;11538;48.884;8.696;2022-08-19T12:52:20;98416.41;;;28.01;47.66
22743;BME280;11538;48.884;8.696;2022-08-19T12:54:50;98413.16;;;27.82;47.24
22743;BME280;11538;48.884;8.696;2022-08-19T12:57:23;98424.84;;;27.97;47.19
22743;BME280;11538;48.884;8.696;2022-08-19T13:00:20;98423.78;;;28.11;46.85
22743;BME280;11538;48.884;8.696;2022-08-19T13:02:51;98419.75;;;28.36;46.75
22743;BME280;11538;48.884;8.696;2022-08-19T13:05:32;98423.97;;;29.18;43.76
22743;BME280;11538;48.884;8.696;2022-08-19T13:08:00;98429.78;;;29.73;42.04
22743;BME280;11538;48.884;8.696;2022-08-19T13:10:34;98439.56;;;28.99;43.12
22743;BME280;11538;48.884;8.696;2022-08-19T13:13:06;98426.28;;;28.46;47.39
22743;BME280;11538;48.884;8.696;2022-08-19T13:15:40;98439.69;;;28.14;46.10
22743;BME280;11538;48.884;8.696;2022-08-19T13:18:09;98448.91;;;27.87;46.33
22743;BME280;11538;48.884;8.696;2022-08-19T13:20:38;98435.78;;;27.64;46.88
22743;BME280;11538;48.884;8.696;2022-08-19T13:23:11;98450.31;;;27.52;49.03
22743;BME280;11538;48.884;8.696;2022-08-19T13:25:38;98450.22;;;27.32;47.71
22743;BME280;11538;48.884;8.696;2022-08-19T13:28:05;98443.25;;;27.20;47.79
22743;BME280;11538;48.884;8.696;2022-08-19T13:30:33;98446.13;;;27.12;48.23